createdAt,value
2023-02-15T00:00:39.705Z,4.52
2023-02-15T00:03:09.742Z,4.41
2023-02-15T00:05:40.454Z,4.65
2023-02-15T00:08:11.642Z,4.50
2023-02-15T00:10:41.736Z,4.75
2023-02-15T00:13:11.582Z,4.73
2023-02-15T00:15:41.836Z,4.97
2023-02-15T00:18:11.655Z,4.77
2023-02-15T00:20:41.451Z,4.81
2023-02-15T00:23:11.545Z,4.77
2023-02-15T00:25:41.647Z,5.00
2023-02-15T00:28:13.525Z,5.03
2023-02-15T00:30:43.032Z,5.11
2023-02-15T00:33:14.773Z,4.60
2023-02-15T00:35:44.326Z,4.60
2023-02-15T00:38:15.062Z,4.73
2023-02-15T00:40:44.910Z,4.83
2023-02-15T00:43:14.680Z,5.06
2023-02-15T00:45:46.570Z,4.94
2023-02-15T00:48:16.458Z,5.00
2023-02-15T00:50:54.118Z,4.97
2023-02-15T00:53:24.513Z,4.91
2023-02-15T00:55:55.508Z,4.74
2023-02-15T00:58:25.405Z,4.81
2023-02-15T01:00:55.874Z,4.92
2023-02-15T01:03:26.533Z,4.96
2023-02-15T01:05:56.374Z,4.85
2023-02-15T01:08:26.183Z,4.83
2023-02-15T01:10:56.083Z,4.54
2023-02-15T01:13:27.215Z,4.63
2023-02-15T01:15:57.758Z,4.82
2023-02-15T01:18:30.750Z,4.54
2023-02-15T01:21:02.383Z,4.67
2023-02-15T01:23:32.222Z,4.54
2023-02-15T01:26:04.362Z,4.45
2023-02-15T01:28:35.982Z,4.60
2023-02-15T01:31:11.446Z,4.58
2023-02-15T01:33:41.591Z,4.58
2023-02-15T01:36:13.546Z,4.46
2023-02-15T01:38:43.383Z,4.67
2023-02-15T01:41:24.479Z,4.64
2023-02-15T01:44:00.832Z,4.46
2023-02-15T01:46:39.695Z,4.49
2023-02-15T01:49:21.608Z,4.45
2023-02-15T01:51:53.783Z,4.26
2023-02-15T01:54:30.916Z,4.42
2023-02-15T01:57:06.825Z,4.39
2023-02-15T01:59:39.879Z,4.51
2023-02-15T02:02:13.810Z,4.43
2023-02-15T02:04:52.022Z,4.35
2023-02-15T02:07:27.753Z,4.36
2023-02-15T02:09:57.641Z,4.19
2023-02-15T02:12:28.006Z,4.32
2023-02-15T02:14:58.712Z,4.37
2023-02-15T02:17:37.693Z,4.44
2023-02-15T02:20:21.206Z,4.54
2023-02-15T02:23:21.076Z,4.20
2023-02-15T02:25:57.795Z,4.19
2023-02-15T02:28:54.524Z,4.05
2023-02-15T02:31:43.361Z,4.20
2023-02-15T02:34:21.043Z,4.22
2023-02-15T02:36:56.890Z,3.92
2023-02-15T02:39:47.730Z,4.10
2023-02-15T02:42:23.553Z,4.20
2023-02-15T02:45:12.720Z,4.10
2023-02-15T02:47:45.722Z,4.12
2023-02-15T02:50:20.543Z,4.10
2023-02-15T02:52:53.056Z,3.96
2023-02-15T02:55:43.754Z,4.07
2023-02-15T02:58:27.312Z,3.86
2023-02-15T03:01:14.313Z,3.90
2023-02-15T03:03:50.759Z,3.94
2023-02-15T03:06:27.442Z,3.82
2023-02-15T03:09:06.360Z,3.85
2023-02-15T03:11:37.069Z,3.91
2023-02-15T03:14:08.158Z,3.99
2023-02-15T03:16:40.060Z,3.76
2023-02-15T03:19:16.049Z,3.79
2023-02-15T03:21:53.652Z,3.79
2023-02-15T03:24:38.433Z,3.88
2023-02-15T03:27:11.593Z,3.65
2023-02-15T03:29:42.034Z,3.68
2023-02-15T03:32:16.367Z,3.65
2023-02-15T03:34:47.015Z,3.70
2023-02-15T03:37:27.953Z,3.68
2023-02-15T03:40:27.284Z,3.49
2023-02-15T03:43:12.269Z,3.45
2023-02-15T03:45:46.060Z,3.37
2023-02-15T03:48:16.404Z,3.37
2023-02-15T03:51:04.280Z,3.45
2023-02-15T03:53:34.302Z,3.41
2023-02-15T03:56:04.530Z,3.47
2023-02-15T03:58:52.188Z,3.26
2023-02-15T04:01:48.440Z,3.30
2023-02-15T04:04:21.392Z,3.45
2023-02-15T04:06:51.569Z,3.20
2023-02-15T04:09:38.782Z,3.48
2023-02-15T04:12:08.704Z,3.28
2023-02-15T04:14:56.442Z,3.24
2023-02-15T04:17:26.199Z,3.32
2023-02-15T04:20:13.749Z,3.46
2023-02-15T04:23:01.322Z,2.96
2023-02-15T04:25:31.092Z,2.96
2023-02-15T04:28:01.270Z,3.04
2023-02-15T04:30:31.190Z,3.17
2023-02-15T04:33:01.426Z,3.19
2023-02-15T04:35:32.608Z,2.94
2023-02-15T04:38:02.644Z,3.00
2023-02-15T04:40:32.312Z,3.06
2023-02-15T04:43:02.389Z,3.02
2023-02-15T04:45:32.341Z,3.08
2023-02-15T04:48:02.430Z,3.05
2023-02-15T04:50:32.214Z,2.83
2023-02-15T04:53:02.318Z,2.79
2023-02-15T04:55:31.908Z,2.77
2023-02-15T04:58:01.988Z,2.94
2023-02-15T05:00:31.894Z,2.89
2023-02-15T05:03:01.972Z,2.87
2023-02-15T05:05:31.789Z,2.85
2023-02-15T05:08:01.956Z,2.77
2023-02-15T05:10:31.806Z,2.84
2023-02-15T05:13:01.900Z,2.73
2023-02-15T05:15:31.976Z,2.81
2023-02-15T05:18:02.443Z,2.67
2023-02-15T05:20:32.208Z,2.67
2023-02-15T05:23:02.064Z,2.67
2023-02-15T05:25:49.677Z,2.70
2023-02-15T05:28:22.247Z,2.64
2023-02-15T05:30:54.681Z,2.52
2023-02-15T05:33:24.552Z,2.51
2023-02-15T05:35:54.664Z,2.54
2023-02-15T05:38:24.289Z,2.53
2023-02-15T05:40:54.921Z,2.64
2023-02-15T05:43:25.350Z,2.57
2023-02-15T05:45:56.469Z,2.70
2023-02-15T05:48:28.403Z,2.67
2023-02-15T05:51:06.984Z,2.73
2023-02-15T05:53:39.314Z,2.69
2023-02-15T05:56:12.946Z,2.58
2023-02-15T05:58:43.673Z,2.50
2023-02-15T06:01:16.518Z,2.52
2023-02-15T06:03:47.300Z,2.44
2023-02-15T06:06:17.951Z,2.29
2023-02-15T06:08:48.085Z,2.48
2023-02-15T06:11:17.907Z,2.47
2023-02-15T06:13:47.671Z,2.20
2023-02-15T06:16:18.474Z,2.40
2023-02-15T06:21:28.193Z,2.45
2023-02-15T06:23:58.504Z,2.58
2023-02-15T06:26:28.232Z,2.20
2023-02-15T06:28:58.305Z,2.53
2023-02-15T06:31:28.318Z,2.43
2023-02-15T06:33:59.572Z,2.33
2023-02-15T06:36:32.996Z,2.29
2023-02-15T06:39:04.148Z,2.27
2023-02-15T06:41:33.711Z,2.05
2023-02-15T06:44:03.578Z,2.31
2023-02-15T06:46:36.097Z,2.09
2023-02-15T06:49:04.962Z,2.03
2023-02-15T06:51:35.166Z,2.21
2023-02-15T06:54:05.069Z,2.17
2023-02-15T06:56:34.860Z,2.21
2023-02-15T06:59:04.418Z,2.21
2023-02-15T07:01:34.274Z,2.13
2023-02-15T07:04:04.097Z,2.16
2023-02-15T07:06:36.669Z,2.18
2023-02-15T07:09:06.828Z,2.07
2023-02-15T07:11:54.461Z,2.08
2023-02-15T07:14:24.588Z,2.06
2023-02-15T07:16:54.471Z,2.07
2023-02-15T07:19:24.519Z,2.08
2023-02-15T07:21:54.608Z,2.08
2023-02-15T07:24:24.317Z,2.15
2023-02-15T07:26:54.537Z,1.97
2023-02-15T07:29:24.592Z,2.13
2023-02-15T07:31:54.563Z,2.30
2023-02-15T07:34:24.433Z,2.30
2023-02-15T07:36:54.766Z,2.16
2023-02-15T07:39:24.875Z,2.51
2023-02-15T07:41:54.510Z,2.53
2023-02-15T07:44:24.686Z,2.61
2023-02-15T07:46:56.234Z,2.60
2023-02-15T07:49:27.825Z,2.57
2023-02-15T07:51:57.584Z,2.78
2023-02-15T07:54:27.673Z,2.78
2023-02-15T07:56:57.546Z,2.90
2023-02-15T07:59:28.164Z,2.90
2023-02-15T08:01:58.360Z,2.93
2023-02-15T08:04:28.440Z,3.03
2023-02-15T08:06:58.292Z,3.19
2023-02-15T08:09:28.389Z,3.01
2023-02-15T08:11:58.204Z,3.16
2023-02-15T08:14:29.966Z,3.49
2023-02-15T08:17:03.755Z,3.43
2023-02-15T08:19:35.623Z,3.36
2023-02-15T08:22:07.837Z,3.34
2023-02-15T08:24:40.044Z,3.61
2023-02-15T08:27:12.012Z,3.52
2023-02-15T08:29:43.211Z,3.70
2023-02-15T08:32:14.674Z,3.65
2023-02-15T08:34:44.967Z,3.82
2023-02-15T08:37:15.025Z,3.83
2023-02-15T08:39:46.138Z,4.05
2023-02-15T08:42:16.380Z,3.88
2023-02-15T08:44:47.488Z,3.99
2023-02-15T08:47:17.951Z,4.08
2023-02-15T08:49:48.121Z,4.08
2023-02-15T08:52:17.917Z,4.25
2023-02-15T08:54:48.046Z,4.16
2023-02-15T08:57:17.908Z,4.26
2023-02-15T08:59:48.099Z,4.37
2023-02-15T09:02:18.082Z,4.54
2023-02-15T09:04:47.884Z,4.72
2023-02-15T09:07:19.358Z,4.91
2023-02-15T09:09:49.246Z,5.07
2023-02-15T09:12:18.817Z,5.05
2023-02-15T09:14:48.749Z,4.95
2023-02-15T09:17:18.511Z,5.22
2023-02-15T09:19:49.965Z,5.13
2023-02-15T09:22:19.809Z,5.50
2023-02-15T09:24:49.662Z,5.45
2023-02-15T09:27:19.513Z,5.57
2023-02-15T09:29:49.867Z,5.73
2023-02-15T09:32:19.732Z,5.91
2023-02-15T09:34:49.785Z,5.91
2023-02-15T09:37:19.561Z,6.02
2023-02-15T09:39:49.382Z,6.14
2023-02-15T09:42:24.751Z,6.44
2023-02-15T09:45:09.615Z,6.68
2023-02-15T09:48:02.981Z,6.83
2023-02-15T09:50:36.766Z,6.99
2023-02-15T09:53:36.652Z,6.99
2023-02-15T09:56:37.980Z,6.84
2023-02-15T09:59:16.518Z,7.20
2023-02-15T10:02:20.527Z,7.62
2023-02-15T10:05:08.461Z,7.83
2023-02-15T10:07:56.206Z,7.98
2023-02-15T10:10:31.917Z,7.93
2023-02-15T10:13:20.624Z,8.01
2023-02-15T10:15:59.091Z,8.15
2023-02-15T10:19:06.354Z,8.53
2023-02-15T10:21:59.791Z,8.67
2023-02-15T10:24:48.906Z,8.79
2023-02-15T10:27:22.024Z,8.98
2023-02-15T10:30:10.059Z,9.00
2023-02-15T10:33:02.277Z,9.28
2023-02-15T10:35:52.930Z,9.37
2023-02-15T10:41:21.294Z,9.90
2023-02-15T10:44:12.148Z,9.64
2023-02-15T10:47:11.447Z,9.87
2023-02-15T10:50:01.418Z,10.19
2023-02-15T10:52:53.072Z,10.53
2023-02-15T10:55:31.218Z,10.39
2023-02-15T10:58:21.638Z,10.62
2023-02-15T11:00:55.834Z,10.49
2023-02-15T11:03:55.582Z,10.74
2023-02-15T11:06:27.056Z,10.76
2023-02-15T11:09:09.847Z,11.07
2023-02-15T11:11:43.379Z,11.12
2023-02-15T11:14:21.705Z,10.95
2023-02-15T11:16:57.290Z,10.84
2023-02-15T11:19:32.439Z,11.38
2023-02-15T11:22:05.276Z,11.44
2023-02-15T11:24:38.009Z,11.26
2023-02-15T11:27:16.331Z,11.30
2023-02-15T11:30:08.996Z,11.44
2023-02-15T11:32:43.973Z,11.79
2023-02-15T11:35:16.758Z,12.42
2023-02-15T11:37:55.075Z,12.26
2023-02-15T11:40:33.565Z,12.21
2023-02-15T11:43:09.006Z,12.56
2023-02-15T11:45:39.510Z,12.62
2023-02-15T11:48:14.851Z,12.67
2023-02-15T11:50:46.035Z,12.79
2023-02-15T11:53:28.659Z,12.70
2023-02-15T11:55:58.665Z,12.94
2023-02-15T11:58:34.987Z,12.94
2023-02-15T12:01:24.515Z,12.81
2023-02-15T12:04:03.381Z,13.00
2023-02-15T12:06:36.223Z,13.13
2023-02-15T12:09:09.104Z,13.48
2023-02-15T12:11:41.603Z,13.70
2023-02-15T12:14:15.833Z,13.84
2023-02-15T12:16:51.241Z,13.68
2023-02-15T12:19:38.464Z,14.13
2023-02-15T12:22:29.703Z,14.12
2023-02-15T12:25:03.110Z,14.27
2023-02-15T12:27:37.918Z,14.47
2023-02-15T12:30:11.795Z,14.35
2023-02-15T12:32:56.346Z,14.55
2023-02-15T12:35:34.938Z,13.83
2023-02-15T12:38:08.404Z,14.44
2023-02-15T12:40:41.007Z,14.71
2023-02-15T12:43:22.149Z,14.71
2023-02-15T12:45:51.828Z,14.86
2023-02-15T12:48:22.459Z,14.95
2023-02-15T12:50:55.297Z,15.45
2023-02-15T12:56:12.669Z,14.98
2023-02-15T12:58:43.650Z,14.90
2023-02-15T13:01:22.412Z,14.90
2023-02-15T13:04:06.735Z,15.20
2023-02-15T13:06:38.770Z,14.94
2023-02-15T13:09:20.210Z,14.88
2023-02-15T13:11:50.169Z,14.30
2023-02-15T13:14:29.543Z,14.70
2023-02-15T13:17:02.337Z,14.75
2023-02-15T13:19:35.882Z,14.92
2023-02-15T13:22:12.756Z,14.95
2023-02-15T13:24:45.218Z,15.21
2023-02-15T13:27:21.057Z,15.15
2023-02-15T13:29:59.531Z,15.21
2023-02-15T13:32:36.578Z,15.10
2023-02-15T13:35:10.351Z,15.43
2023-02-15T13:38:01.009Z,15.61
2023-02-15T13:40:36.577Z,15.58
2023-02-15T13:43:25.956Z,15.05
2023-02-15T13:46:07.910Z,15.23
2023-02-15T13:48:55.454Z,15.69
2023-02-15T13:51:34.145Z,15.62
2023-02-15T13:54:29.766Z,15.67
2023-02-15T13:57:02.873Z,15.64
2023-02-15T13:59:39.671Z,15.40
2023-02-15T14:02:46.250Z,15.13
2023-02-15T14:05:18.870Z,15.32
2023-02-15T14:08:11.086Z,14.88
2023-02-15T14:10:43.975Z,15.18
2023-02-15T14:13:22.560Z,14.31
2023-02-15T14:16:07.399Z,14.67
2023-02-15T14:18:54.909Z,14.57
2023-02-15T14:21:30.288Z,14.77
2023-02-15T14:24:05.595Z,14.75
2023-02-15T14:26:49.790Z,15.02
2023-02-15T14:29:46.744Z,14.74
2023-02-15T14:32:37.378Z,14.89
2023-02-15T14:35:17.287Z,15.17
2023-02-15T14:38:22.915Z,14.81
2023-02-15T14:41:05.354Z,14.62
2023-02-15T14:43:57.767Z,14.94
2023-02-15T14:46:38.926Z,14.80
2023-02-15T14:49:30.867Z,14.65
2023-02-15T14:52:07.469Z,14.56
2023-02-15T14:54:40.293Z,14.63
2023-02-15T14:57:12.929Z,14.41
2023-02-15T14:59:59.892Z,14.38
2023-02-15T15:02:44.782Z,14.57
2023-02-15T15:05:23.587Z,14.38
2023-02-15T15:07:58.959Z,14.34
2023-02-15T15:10:43.382Z,14.19
2023-02-15T15:13:37.053Z,14.17
2023-02-15T15:16:34.206Z,14.24
2023-02-15T15:19:07.185Z,14.17
2023-02-15T15:21:57.739Z,14.19
2023-02-15T15:24:42.209Z,14.11
2023-02-15T15:27:47.008Z,14.04
2023-02-15T15:30:24.663Z,14.05
2023-02-15T15:33:00.333Z,13.91
2023-02-15T15:35:47.422Z,14.03
2023-02-15T15:38:20.384Z,14.00
2023-02-15T15:41:25.815Z,13.87
2023-02-15T15:44:10.466Z,13.87
2023-02-15T15:47:03.029Z,13.80
2023-02-15T15:49:35.800Z,13.77
2023-02-15T15:52:21.748Z,13.58
2023-02-15T15:54:54.403Z,13.54
2023-02-15T15:57:32.912Z,13.32
2023-02-15T16:00:04.496Z,13.31
2023-02-15T16:02:36.151Z,13.31
2023-02-15T16:05:11.825Z,13.26
2023-02-15T16:07:43.566Z,13.02
2023-02-15T16:10:26.170Z,13.24
2023-02-15T16:12:57.422Z,13.14
2023-02-15T16:15:31.306Z,12.99
2023-02-15T16:18:02.212Z,12.78
2023-02-15T16:20:37.777Z,12.71
2023-02-15T16:23:21.933Z,12.61
2023-02-15T16:26:20.002Z,12.70
2023-02-15T16:28:53.809Z,12.53
2023-02-15T16:31:27.738Z,12.23
2023-02-15T16:33:57.866Z,12.36
2023-02-15T16:36:31.775Z,12.36
2023-02-15T16:39:10.482Z,12.17
2023-02-15T16:41:40.734Z,12.20
2023-02-15T16:44:22.483Z,12.13
2023-02-15T16:46:55.286Z,11.93
2023-02-15T16:49:28.249Z,12.09
2023-02-15T16:52:00.948Z,11.83
2023-02-15T16:54:32.926Z,12.03
2023-02-15T16:57:03.415Z,12.05
2023-02-15T16:59:36.646Z,11.87
2023-02-15T17:02:09.835Z,11.69
2023-02-15T17:04:40.214Z,11.58
2023-02-15T17:07:22.622Z,11.56
2023-02-15T17:10:00.016Z,11.52
2023-02-15T17:12:50.998Z,11.68
2023-02-15T17:15:35.161Z,11.48
2023-02-15T17:18:14.933Z,11.28
2023-02-15T17:20:45.887Z,11.20
2023-02-15T17:23:36.594Z,11.49
2023-02-15T17:26:26.665Z,11.35
2023-02-15T17:29:01.932Z,11.26
2023-02-15T17:31:34.891Z,11.30
2023-02-15T17:34:06.920Z,11.13
2023-02-15T17:36:36.927Z,11.14
2023-02-15T17:39:12.243Z,11.05
2023-02-15T17:41:44.820Z,11.05
2023-02-15T17:44:16.392Z,11.04
2023-02-15T17:46:46.265Z,11.06
2023-02-15T17:49:29.245Z,10.77
2023-02-15T17:51:59.911Z,10.70
2023-02-15T17:54:50.316Z,10.58
2023-02-15T17:57:20.216Z,10.45
2023-02-15T18:00:08.255Z,10.52
2023-02-15T18:03:01.944Z,10.57
2023-02-15T18:05:49.351Z,10.52
2023-02-15T18:08:39.881Z,10.39
2023-02-15T18:11:28.835Z,10.32
2023-02-15T18:14:00.143Z,10.24
2023-02-15T18:16:33.472Z,10.08
2023-02-15T18:19:04.917Z,10.06
2023-02-15T18:21:35.177Z,9.93
2023-02-15T18:24:06.496Z,9.90
2023-02-15T18:26:36.333Z,9.99
2023-02-15T18:29:06.206Z,9.90
2023-02-15T18:31:36.714Z,10.03
2023-02-15T18:34:09.994Z,9.94
2023-02-15T18:36:45.655Z,9.89
2023-02-15T18:39:30.401Z,9.84
2023-02-15T18:42:00.236Z,9.72
2023-02-15T18:44:30.154Z,9.45
2023-02-15T18:46:59.932Z,9.59
2023-02-15T18:49:29.701Z,9.72
2023-02-15T18:51:59.695Z,9.55
2023-02-15T18:54:29.737Z,9.57
2023-02-15T18:57:04.615Z,9.45
2023-02-15T18:59:34.715Z,9.37
2023-02-15T19:02:14.510Z,9.22
2023-02-15T19:04:45.315Z,9.39
2023-02-15T19:07:21.102Z,9.42
2023-02-15T19:09:54.433Z,9.39
2023-02-15T19:12:24.661Z,9.32
2023-02-15T19:14:56.599Z,9.22
2023-02-15T19:17:26.763Z,9.20
2023-02-15T19:19:56.724Z,9.19
2023-02-15T19:22:31.543Z,9.13
2023-02-15T19:25:04.035Z,9.15
2023-02-15T19:27:36.365Z,9.01
2023-02-15T19:30:23.144Z,9.09
2023-02-15T19:32:53.479Z,9.13
2023-02-15T19:35:26.452Z,9.07
2023-02-15T19:37:59.133Z,8.92
2023-02-15T19:40:31.628Z,8.96
2023-02-15T19:43:01.654Z,8.96
2023-02-15T19:45:33.362Z,8.99
2023-02-15T19:48:03.797Z,9.04
2023-02-15T19:50:35.270Z,8.99
2023-02-15T19:53:05.258Z,8.71
2023-02-15T19:55:37.892Z,8.74
2023-02-15T19:58:14.841Z,8.91
2023-02-15T20:00:44.273Z,8.91
2023-02-15T20:03:15.580Z,8.85
2023-02-15T20:05:46.856Z,8.84
2023-02-15T20:08:22.928Z,8.68
2023-02-15T20:10:52.466Z,8.82
2023-02-15T20:13:22.712Z,8.63
2023-02-15T20:15:53.070Z,8.59
2023-02-15T20:18:23.200Z,8.59
2023-02-15T20:20:55.937Z,8.70
2023-02-15T20:23:31.938Z,8.63
2023-02-15T20:26:04.032Z,8.51
2023-02-15T20:28:33.801Z,8.58
2023-02-15T20:31:04.102Z,8.49
2023-02-15T20:33:34.288Z,8.59
2023-02-15T20:36:06.708Z,8.36
2023-02-15T20:38:36.343Z,8.67
2023-02-15T20:41:24.158Z,8.64
2023-02-15T20:43:54.016Z,8.58
2023-02-15T20:46:23.565Z,8.42
2023-02-15T20:48:53.518Z,8.32
2023-02-15T20:51:23.712Z,8.49
2023-02-15T20:53:53.627Z,8.62
2023-02-15T20:56:25.604Z,8.44
2023-02-15T20:58:55.699Z,8.49
2023-02-15T21:01:25.669Z,8.49
2023-02-15T21:03:55.702Z,8.39
2023-02-15T21:06:25.568Z,8.49
2023-02-15T21:08:55.805Z,8.44
2023-02-15T21:11:25.822Z,8.43
2023-02-15T21:13:56.117Z,8.37
2023-02-15T21:16:26.069Z,8.49
2023-02-15T21:18:55.937Z,8.43
2023-02-15T21:21:26.271Z,8.43
2023-02-15T21:23:56.190Z,8.47
2023-02-15T21:26:25.696Z,8.53
2023-02-15T21:28:56.953Z,8.60
2023-02-15T21:31:28.599Z,8.44
2023-02-15T21:33:58.580Z,8.30
2023-02-15T21:36:28.802Z,8.58
2023-02-15T21:38:58.600Z,8.60
2023-02-15T21:41:46.911Z,8.66
2023-02-15T21:44:40.469Z,8.37
2023-02-15T21:47:39.630Z,8.36
2023-02-15T21:50:34.373Z,8.37
2023-02-15T21:53:05.785Z,8.18
2023-02-15T21:55:35.647Z,8.25
2023-02-15T21:58:08.097Z,8.24
2023-02-15T22:00:38.081Z,8.24
2023-02-15T22:03:07.980Z,8.32
2023-02-15T22:05:38.639Z,8.18
2023-02-15T22:08:14.797Z,8.22
2023-02-15T22:10:46.030Z,8.10
2023-02-15T22:13:19.987Z,8.02
2023-02-15T22:15:49.814Z,8.11
2023-02-15T22:18:28.126Z,8.01
2023-02-15T22:20:59.832Z,7.93
2023-02-15T22:23:29.777Z,8.02
2023-02-15T22:26:02.172Z,8.10
2023-02-15T22:28:39.973Z,7.85
2023-02-15T22:33:46.248Z,7.83
2023-02-15T22:36:27.833Z,7.79
2023-02-15T22:38:58.322Z,7.79
2023-02-15T22:41:30.696Z,7.60
2023-02-15T22:44:00.583Z,7.61
2023-02-15T22:46:30.268Z,7.61
2023-02-15T22:49:00.407Z,7.61
2023-02-15T22:51:31.248Z,7.60
2023-02-15T22:54:01.171Z,7.63
2023-02-15T22:56:39.610Z,7.44
2023-02-15T22:59:24.513Z,7.62
2023-02-15T23:01:54.281Z,7.60
2023-02-15T23:04:29.974Z,7.58
2023-02-15T23:07:00.872Z,7.42
2023-02-15T23:09:30.695Z,7.48
2023-02-15T23:12:00.585Z,7.52
2023-02-15T23:14:35.672Z,7.37
2023-02-15T23:17:05.774Z,7.48
2023-02-15T23:19:35.829Z,7.41
2023-02-15T23:22:20.393Z,7.48
2023-02-15T23:24:53.474Z,7.52
2023-02-15T23:27:41.056Z,7.40
2023-02-15T23:30:16.302Z,7.41
2023-02-15T23:32:46.234Z,7.24
2023-02-15T23:35:17.890Z,7.19
2023-02-15T23:37:48.217Z,7.26
2023-02-15T23:40:38.560Z,7.42
2023-02-15T23:43:10.403Z,7.35
2023-02-15T23:45:40.940Z,7.23
2023-02-15T23:48:32.809Z,7.33
2023-02-15T23:51:03.847Z,7.30
2023-02-15T23:53:34.455Z,7.23
2023-02-15T23:56:07.756Z,7.21
2023-02-15T23:58:40.909Z,7.15
